| Date | Time | Temp. (oF) | Dew Point (oF) | Rel. Hum. (%) | Press. (in.) | Wind Dir. | Wind Speed (mph) | Hourly Rainfall (in.) |
|
|---|---|---|---|---|---|---|---|---|---|
| 1 | 06/08 | 00:00 | 59 | 56 | 90 | 30.26 | SSE | 1 | 0.00 |
| 2 | 06/07 | 23:00 | 61 | 56 | 86 | 30.24 | S | 0 | 0.00 |
| 3 | 06/07 | 22:00 | 64 | 56 | 78 | 30.23 | S | 0 | 0.00 |
| 4 | 06/07 | 21:00 | 66 | 56 | 72 | 30.21 | S | 0 | 0.00 |
| 5 | 06/07 | 20:00 | 69 | 56 | 64 | 30.19 | S | 1 | 0.00 |
| 6 | 06/07 | 19:00 | 71 | 55 | 58 | 30.17 | SSE | 3 | 0.00 |
| 7 | 06/07 | 18:00 | 71 | 53 | 55 | 30.17 | ENE | 3 | 0.00 |
| 8 | 06/07 | 17:00 | 71 | 54 | 56 | 30.18 | NE | 3 | 0.00 |
| 9 | 06/07 | 16:00 | 70 | 54 | 59 | 30.19 | NNE | 4 | 0.00 |
| 10 | 06/07 | 15:00 | 70 | 55 | 60 | 30.20 | NW | 4 | 0.00 |
| 11 | 06/07 | 14:00 | 69 | 55 | 62 | 30.20 | N | 5 | 0.00 |
| 12 | 06/07 | 13:00 | 68 | 53 | 61 | 30.20 | N | 11 | 0.00 |
| 13 | 06/07 | 12:00 | 66 | 54 | 67 | 30.20 | NNW | 5 | 0.00 |
| 14 | 06/07 | 11:00 | 64 | 55 | 73 | 30.17 | NE | 10 | 0.00 |
| 15 | 06/07 | 10:00 | 64 | 56 | 77 | 30.17 | NNE | 12 | 0.00 |
| 16 | 06/07 | 09:00 | 59 | 56 | 90 | 30.15 | N | 9 | 0.00 |
| 17 | 06/07 | 08:00 | 58 | 57 | 98 | 30.13 | ENE | 4 | 0.01 |
| 18 | 06/07 | 07:00 | 59 | 57 | 94 | 30.09 | NNW | 7 | 0.00 |
| 19 | 06/07 | 06:00 | 59 | 57 | 96 | 30.05 | WNW | 2 | 0.00 |
| 20 | 06/07 | 05:00 | 59 | 57 | 96 | 30.02 | NNE | 10 | 0.00 |
| 21 | 06/07 | 04:00 | 59 | 58 | 97 | 30.00 | NNW | 5 | 0.00 |
| 22 | 06/07 | 03:00 | 60 | 58 | 95 | 29.99 | N | 7 | 0.00 |
| 23 | 06/07 | 02:00 | 60 | 58 | 96 | 29.97 | NNW | 13 | 0.00 |
| 24 | 06/07 | 01:00 | 60 | 59 | 98 | 29.97 | NE | 4 | 0.00 |